Flight Track Log - Related Links

Times and Time Zones

All times are in EDT time to prevent confusion due to time zone crossing. See the QTR105 flight status page for this flight to view local times or setup timezone preferences in your user account.

Time Position Orientation Groundspeed Altitude Reporting Facility
EDT Latitude Longitude Course Direction KTS MPH feet Rate Location/Type
Tue 11:32:12 PM 25.2560 55.3650 360° North 144 166 200  Level FlightAware ADS-B
Tue 11:32:22 PM 25.2600 55.3590 306° West 171 197 200 2,533 Level FlightAware ADS-B
Tue 11:32:57 PM 25.2750 55.3310 301° West 153 176 2,100 2,308 Climbing FlightAware ADS-B
Tue 11:33:27 PM 25.2860 55.3120 303° West 167 192 2,700 982 Climbing FlightAware ADS-B
Tue 11:33:52 PM 25.2960 55.2900 297° West 202 232 3,000 1,333 Climbing FlightAware ADS-B
Tue 11:34:12 PM 25.2840 55.2560 249° West 263 303 3,700 2,945 Climbing FlightAware ADS-B
Tue 11:34:47 PM 25.2600 55.2160 236° Southwest 264 304 5,700 3,360 Climbing FlightAware ADS-B
Tue 11:35:02 PM 25.2560 55.1960 258° West 261 300 6,500 2,800 Climbing FlightAware ADS-B
Tue 11:35:32 PM 25.2500 55.1580 260° West 271 312 7,800 2,667 Climbing FlightAware ADS-B
Tue 11:35:47 PM 25.2470 55.1370 261° West 275 316 8,500 2,850 Climbing FlightAware ADS-B
Tue 11:36:12 PM 25.2410 55.1000 260° West 280 322 9,700 2,229 Climbing FlightAware ADS-B
Tue 11:36:57 PM 25.2300 55.0330 260° West 316 364 11,100 1,553 Climbing FlightAware ADS-B
Tue 11:37:37 PM 25.2190 54.9660 260° West 357 411 11,900 1,725 Climbing FlightAware ADS-B
Tue 11:38:17 PM 25.2080 54.8960 260° West 368 423 13,400 2,753 Climbing FlightAware ADS-B
Tue 11:39:02 PM 25.1940 54.8090 260° West 360 414 15,800 2,460 Climbing FlightAware ADS-B
Tue 11:39:57 PM 25.1960 54.7080 271° West 381 438 17,500 2,211 Climbing FlightAware ADS-B
Tue 11:40:37 PM 25.2140 54.6330 285° West 374 430 19,300 1,765 Climbing FlightAware ADS-B
Tue 11:41:22 PM 25.2330 54.5520 285° West 370 426 20,000 494 Climbing FlightAware ADS-B
Tue 11:42:02 PM 25.2510 54.4780 285° West 375 432 20,000 565 Level FlightAware ADS-B
Tue 11:42:47 PM 25.2720 54.3910 285° West 376 433 20,800 1,200 Climbing FlightAware ADS-B
Tue 11:43:32 PM 25.2920 54.3080 285° West 376 433 21,800 847 Climbing FlightAware ADS-B
Tue 11:44:12 PM 25.3080 54.2350 284° West 367 422 22,000 171 Climbing FlightAware ADS-B
Tue 11:44:42 PM 25.3080 54.1800 270° West 367 422 22,000  Level FlightAware ADS-B
Tue 11:45:42 PM 25.3060 54.0670 269° West 369 425 22,000  Level FlightAware ADS-B
Tue 11:46:32 PM 25.3040 53.9730 269° West 370 426 22,000  Level FlightAware ADS-B
Tue 11:47:12 PM 25.3020 53.8960 268° West 370 426 22,000  Level FlightAware ADS-B
Tue 11:47:57 PM 25.3000 53.8110 269° West 372 428 22,000  Level FlightAware ADS-B
Tue 11:48:27 PM 25.2990 53.7570 269° West 371 427 22,000  Level FlightAware ADS-B
Tue 11:49:07 PM 25.2970 53.6830 268° West 371 427 22,000  Level FlightAware ADS-B
Tue 11:49:47 PM 25.2950 53.6030 268° West 371 427 22,000 -141 Level FlightAware ADS-B
Tue 11:50:32 PM 25.2930 53.5230 268° West 355 409 21,800 -988 Descending FlightAware ADS-B
Tue 11:51:12 PM 25.2910 53.4490 268° West 345 397 20,600 -1,350 Descending FlightAware ADS-B
Tue 11:51:52 PM 25.2890 53.3780 268° West 346 398 20,000 -424 Descending FlightAware ADS-B
Tue 11:52:37 PM 25.2870 53.3000 268° West 345 397 20,000  Level FlightAware ADS-B
Tue 11:53:17 PM 25.2850 53.2290 268° West 341 392 20,000  Level FlightAware ADS-B
Tue 11:53:57 PM 25.2830 53.1590 268° West 344 396 20,000  Level FlightAware ADS-B
Tue 11:54:42 PM 25.2810 53.0810 268° West 345 397 20,000  Level FlightAware ADS-B
Tue 11:55:22 PM 25.2790 53.0170 268° West 343 395 20,000 -300 Level FlightAware ADS-B
Tue 11:56:02 PM 25.2770 52.9380 268° West 340 391 19,600 -1,280 Descending FlightAware ADS-B
Tue 11:56:37 PM 25.2750 52.8810 268° West 342 394 18,400 -1,477 Descending FlightAware ADS-B
Tue 11:58:12 PM 25.2710 52.7150 269° West 303 349 16,400 -1,371 Descending FlightAware ADS-B
Tue 11:59:32 PM 25.2520 52.5960 260° West 286 329 14,400 -1,459 Descending FlightAware ADS-B
Wed 12:01:17 AM 25.2230 52.4510 258° West 281 323 11,900 -1,482 Descending FlightAware ADS-B
Wed 12:02:22 AM 25.2050 52.3570 258° West 282 325 10,200 -1,500 Descending FlightAware ADS-B
Wed 12:02:37 AM 25.2010 52.3360 258° West 279 321 9,900 -1,029 Descending FlightAware ADS-B
Wed 12:03:32 AM 25.1850 52.2590 257° West 285 328 9,000 -847 Descending FlightAware ADS-B
Wed 12:04:02 AM 25.1770 52.2200 257° West 281 323 8,700 -600 Descending FlightAware ADS-B
Wed 12:04:32 AM 25.1690 52.1760 259° West 277 319 8,400 -655 Descending FlightAware ADS-B
Wed 12:04:57 AM 25.1610 52.1400 256° West 272 313 8,100 -550 Descending FlightAware ADS-B
Wed 12:06:32 AM 25.1370 52.0160 258° West 267 307 7,300 -700 Descending FlightAware ADS-B
Wed 12:06:57 AM 25.1290 51.9770 257° West 267 307 6,700 -720 Descending FlightAware ADS-B
Wed 12:07:22 AM 25.1230 51.9460 258° West 267 307 6,700 -873 Level FlightAware ADS-B
Wed 12:07:52 AM 25.1140 51.9040 257° West 258 297 5,900 -1,333 Descending FlightAware ADS-B
Wed 12:08:07 AM 25.1100 51.8840 258° West 258 297 5,700 -600 Descending FlightAware ADS-B
Wed 12:08:52 AM 25.1000 51.8370 257° West 232 267 5,300 -600 Descending FlightAware ADS-B
Wed 12:09:37 AM 25.0900 51.7830 258° West 201 231 4,800 -686 Descending FlightAware ADS-B
Wed 12:10:02 AM 25.0840 51.7570 256° West 197 227 4,500 -565 Descending FlightAware ADS-B
Wed 12:11:02 AM 25.0740 51.7050 258° West 165 190 4,000 -600 Descending FlightAware ADS-B
Wed 12:11:32 AM 25.0680 51.6780 256° West 154 177 3,600 -667 Descending FlightAware ADS-B
Wed 12:11:47 AM 25.0660 51.6690 256° West 153 176 3,500 -545 Descending FlightAware ADS-B
Wed 12:12:27 AM 25.0840 51.6430 307° West 178 205 3,100 -667 Descending FlightAware ADS-B
Wed 12:13:17 AM 25.1230 51.6260 338° Northwest 173 199 2,500 -800 Descending FlightAware ADS-B
Wed 12:13:42 AM 25.1410 51.6180 338° Northwest 159 183 2,100 -764 Descending FlightAware ADS-B
Wed 12:14:12 AM 25.1620 51.6090 339° North 142 163 1,800 -764 Descending FlightAware ADS-B
Wed 12:14:37 AM 25.1760 51.6030 339° North 139 160 1,400 -764 Descending FlightAware ADS-B
Wed 12:15:07 AM 25.1930 51.5950 337° Northwest 140 161 1,100 -327 Descending FlightAware ADS-B
Wed 12:15:32 AM 25.2060 51.5890 337° Northwest 140 161 1,100 -640 Level FlightAware ADS-B
Wed 12:16:22 AM 25.2380 51.5750 338° Northwest 138 159 300 -706 Descending FlightAware ADS-B
Wed 12:16:57 AM 25.2590 51.5660 339° North 138 159 100 -343 Descending FlightAware ADS-B
Wed 12:19:00 AM 25.2611 51.5651 338° Northwest  Level Estimated
Wed 12:20:00 AM 25.2611 51.5651 324° Northwest  Level Estimated
Wed 12:21:00 AM 25.2611 51.5651 324° Northwest  Level Estimated
Wed 12:22:00 AM 25.2611 51.5651 324° Northwest  Level Estimated
Wed 12:23:00 AM 25.2611 51.5651 324° Northwest  Level Estimated
Wed 12:24:00 AM 25.2611 51.5651 324° Northwest  Level Estimated
Wed 12:25:00 AM 25.2611 51.5651 324° Northwest  Level Estimated
Wed 12:26:00 AM 25.2611 51.5651 324° Northwest  Level Estimated
Wed 12:27:00 AM 25.2611 51.5651 324° Northwest  Level Estimated
Wed 12:28:00 AM 25.2611 51.5651 324° Northwest  Level Estimated

Login

Don't have an account? Register now (free) for customized features, flight alerts, and more!